sensor_id;sensor_type;location;lat;lon;timestamp;pressure;altitude;pressure_sealevel;temperature;humidity
46430;BME280;32131;53.454;-6.180;2023-03-15T00:00:19;101358.84;;;-0.01;90.29
46430;BME280;32131;53.454;-6.180;2023-03-15T00:02:49;101360.09;;;-0.08;90.51
46430;BME280;32131;53.454;-6.180;2023-03-15T00:05:22;101372.78;;;-0.08;90.59
46430;BME280;32131;53.454;-6.180;2023-03-15T00:07:59;101373.31;;;-0.12;90.42
46430;BME280;32131;53.454;-6.180;2023-03-15T00:10:39;101370.59;;;-0.15;90.68
46430;BME280;32131;53.454;-6.180;2023-03-15T00:13:20;101376.44;;;-0.16;91.02
46430;BME280;32131;53.454;-6.180;2023-03-15T00:18:58;101387.34;;;-0.05;91.08
46430;BME280;32131;53.454;-6.180;2023-03-15T00:21:40;101385.88;;;-0.02;91.10
46430;BME280;32131;53.454;-6.180;2023-03-15T00:24:10;101397.91;;;0.01;91.17
46430;BME280;32131;53.454;-6.180;2023-03-15T00:26:40;101395.50;;;0.03;90.98
46430;BME280;32131;53.454;-6.180;2023-03-15T00:29:09;101394.50;;;0.01;91.13
46430;BME280;32131;53.454;-6.180;2023-03-15T00:31:39;101391.75;;;-0.03;91.04
46430;BME280;32131;53.454;-6.180;2023-03-15T00:34:10;101389.41;;;0.01;91.31
46430;BME280;32131;53.454;-6.180;2023-03-15T00:36:41;101389.41;;;0.01;91.43
46430;BME280;32131;53.454;-6.180;2023-03-15T00:39:14;101372.31;;;-0.02;91.40
46430;BME280;32131;53.454;-6.180;2023-03-15T00:41:43;101369.00;;;-0.01;91.43
46430;BME280;32131;53.454;-6.180;2023-03-15T00:44:11;101356.88;;;-0.05;91.38
46430;BME280;32131;53.454;-6.180;2023-03-15T00:46:42;101353.16;;;-0.10;91.51
46430;BME280;32131;53.454;-6.180;2023-03-15T00:49:10;101362.00;;;-0.17;91.66
46430;BME280;32131;53.454;-6.180;2023-03-15T00:51:51;101364.97;;;-0.23;91.72
46430;BME280;32131;53.454;-6.180;2023-03-15T00:54:25;101367.09;;;-0.29;91.74
46430;BME280;32131;53.454;-6.180;2023-03-15T00:56:54;101369.31;;;-0.34;92.00
46430;BME280;32131;53.454;-6.180;2023-03-15T00:59:26;101370.00;;;-0.36;92.08
46430;BME280;32131;53.454;-6.180;2023-03-15T01:02:08;101367.03;;;-0.42;92.25
46430;BME280;32131;53.454;-6.180;2023-03-15T01:04:41;101373.75;;;-0.43;92.38
46430;BME280;32131;53.454;-6.180;2023-03-15T01:07:42;101378.81;;;-0.43;92.45
46430;BME280;32131;53.454;-6.180;2023-03-15T01:10:53;101384.31;;;-0.37;92.97
46430;BME280;32131;53.454;-6.180;2023-03-15T01:13:55;101377.59;;;-0.36;92.82
46430;BME280;32131;53.454;-6.180;2023-03-15T01:16:41;101392.94;;;-0.35;92.94
46430;BME280;32131;53.454;-6.180;2023-03-15T01:19:14;101392.59;;;-0.39;92.98
46430;BME280;32131;53.454;-6.180;2023-03-15T01:21:42;101400.78;;;-0.43;92.92
46430;BME280;32131;53.454;-6.180;2023-03-15T01:24:17;101391.75;;;-0.52;93.26
46430;BME280;32131;53.454;-6.180;2023-03-15T01:26:46;101389.66;;;-0.57;93.81
46430;BME280;32131;53.454;-6.180;2023-03-15T01:29:14;101394.50;;;-0.60;93.84
46430;BME280;32131;53.454;-6.180;2023-03-15T01:31:48;101387.25;;;-0.68;93.90
46430;BME280;32131;53.454;-6.180;2023-03-15T01:34:25;101380.63;;;-0.77;94.03
46430;BME280;32131;53.454;-6.180;2023-03-15T01:36:54;101379.63;;;-0.80;93.87
46430;BME280;32131;53.454;-6.180;2023-03-15T01:39:28;101379.75;;;-0.78;94.33
46430;BME280;32131;53.454;-6.180;2023-03-15T01:42:03;101372.78;;;-0.81;94.15
46430;BME280;32131;53.454;-6.180;2023-03-15T01:44:49;101366.63;;;-0.84;94.33
46430;BME280;32131;53.454;-6.180;2023-03-15T01:47:18;101371.47;;;-0.87;94.51
46430;BME280;32131;53.454;-6.180;2023-03-15T01:49:50;101379.06;;;-0.87;94.73
46430;BME280;32131;53.454;-6.180;2023-03-15T01:52:23;101373.81;;;-0.90;94.74
46430;BME280;32131;53.454;-6.180;2023-03-15T01:54:55;101382.28;;;-0.90;94.73
46430;BME280;32131;53.454;-6.180;2023-03-15T01:57:26;101390.56;;;-0.92;94.83
46430;BME280;32131;53.454;-6.180;2023-03-15T02:00:00;101396.50;;;-0.92;94.95
46430;BME280;32131;53.454;-6.180;2023-03-15T02:02:39;101398.94;;;-0.93;94.83
46430;BME280;32131;53.454;-6.180;2023-03-15T02:05:17;101402.56;;;-0.90;94.94
46430;BME280;32131;53.454;-6.180;2023-03-15T02:07:47;101395.72;;;-0.91;94.84
46430;BME280;32131;53.454;-6.180;2023-03-15T02:10:25;101395.53;;;-0.82;95.19
46430;BME280;32131;53.454;-6.180;2023-03-15T02:12:55;101386.38;;;-0.80;95.24
46430;BME280;32131;53.454;-6.180;2023-03-15T02:15:28;101376.22;;;-0.80;94.95
46430;BME280;32131;53.454;-6.180;2023-03-15T02:18:08;101383.94;;;-0.78;94.93
46430;BME280;32131;53.454;-6.180;2023-03-15T02:20:47;101373.69;;;-0.80;95.01
46430;BME280;32131;53.454;-6.180;2023-03-15T02:23:20;101373.69;;;-0.80;94.89
46430;BME280;32131;53.454;-6.180;2023-03-15T02:25:54;101381.50;;;-0.77;95.08
46430;BME280;32131;53.454;-6.180;2023-03-15T02:28:26;101374.47;;;-0.81;95.07
46430;BME280;32131;53.454;-6.180;2023-03-15T02:30:54;101384.03;;;-0.77;94.97
46430;BME280;32131;53.454;-6.180;2023-03-15T02:33:26;101381.75;;;-0.74;94.94
46430;BME280;32131;53.454;-6.180;2023-03-15T02:35:59;101377.97;;;-0.67;94.93
46430;BME280;32131;53.454;-6.180;2023-03-15T02:38:34;101363.63;;;-0.67;94.75
46430;BME280;32131;53.454;-6.180;2023-03-15T02:41:06;101355.47;;;-0.63;94.45
46430;BME280;32131;53.454;-6.180;2023-03-15T02:43:48;101354.34;;;-0.54;94.50
46430;BME280;32131;53.454;-6.180;2023-03-15T02:46:18;101351.81;;;-0.54;94.45
46430;BME280;32131;53.454;-6.180;2023-03-15T02:48:48;101343.88;;;-0.47;94.36
46430;BME280;32131;53.454;-6.180;2023-03-15T02:51:21;101339.75;;;-0.45;94.31
46430;BME280;32131;53.454;-6.180;2023-03-15T02:53:52;101345.06;;;-0.42;94.08
46430;BME280;32131;53.454;-6.180;2023-03-15T02:56:20;101333.91;;;-0.44;93.81
46430;BME280;32131;53.454;-6.180;2023-03-15T02:58:54;101329.06;;;-0.41;94.04
46430;BME280;32131;53.454;-6.180;2023-03-15T03:01:24;101320.78;;;-0.38;94.08
46430;BME280;32131;53.454;-6.180;2023-03-15T03:03:52;101313.06;;;-0.40;93.89
46430;BME280;32131;53.454;-6.180;2023-03-15T03:06:20;101305.56;;;-0.38;93.92
46430;BME280;32131;53.454;-6.180;2023-03-15T03:08:50;101307.22;;;-0.39;94.03
46430;BME280;32131;53.454;-6.180;2023-03-15T03:11:24;101308.19;;;-0.37;93.95
46430;BME280;32131;53.454;-6.180;2023-03-15T03:13:54;101315.94;;;-0.35;94.06
46430;BME280;32131;53.454;-6.180;2023-03-15T03:16:24;101317.78;;;-0.33;94.18
46430;BME280;32131;53.454;-6.180;2023-03-15T03:18:53;101311.16;;;-0.30;94.13
46430;BME280;32131;53.454;-6.180;2023-03-15T03:21:25;101301.97;;;-0.28;94.02
46430;BME280;32131;53.454;-6.180;2023-03-15T03:23:53;101304.06;;;-0.23;94.06
46430;BME280;32131;53.454;-6.180;2023-03-15T03:26:22;101299.97;;;-0.21;93.33
46430;BME280;32131;53.454;-6.180;2023-03-15T03:28:55;101288.81;;;-0.23;93.43
46430;BME280;32131;53.454;-6.180;2023-03-15T03:31:25;101285.44;;;-0.23;93.64
46430;BME280;32131;53.454;-6.180;2023-03-15T03:33:54;101277.69;;;-0.25;93.76
46430;BME280;32131;53.454;-6.180;2023-03-15T03:36:23;101271.75;;;-0.25;93.76
46430;BME280;32131;53.454;-6.180;2023-03-15T03:38:53;101268.44;;;-0.24;93.81
46430;BME280;32131;53.454;-6.180;2023-03-15T03:41:31;101276.34;;;-0.20;93.73
46430;BME280;32131;53.454;-6.180;2023-03-15T03:44:04;101275.28;;;-0.23;93.29
46430;BME280;32131;53.454;-6.180;2023-03-15T03:46:33;101276.81;;;-0.25;93.48
46430;BME280;32131;53.454;-6.180;2023-03-15T03:49:04;101277.69;;;-0.25;93.66
46430;BME280;32131;53.454;-6.180;2023-03-15T03:51:33;101277.59;;;-0.26;93.71
46430;BME280;32131;53.454;-6.180;2023-03-15T03:54:03;101267.66;;;-0.23;93.80
46430;BME280;32131;53.454;-6.180;2023-03-15T03:56:31;101275.28;;;-0.23;93.85
46430;BME280;32131;53.454;-6.180;2023-03-15T03:59:06;101275.28;;;-0.23;93.90
46430;BME280;32131;53.454;-6.180;2023-03-15T04:01:38;101276.13;;;-0.23;93.75
46430;BME280;32131;53.454;-6.180;2023-03-15T04:04:08;101273.50;;;-0.24;93.78
46430;BME280;32131;53.454;-6.180;2023-03-15T04:06:40;101267.53;;;-0.25;93.86
46430;BME280;32131;53.454;-6.180;2023-03-15T04:09:25;101266.44;;;-0.28;93.84
46430;BME280;32131;53.454;-6.180;2023-03-15T04:11:54;101268.03;;;-0.30;94.04
46430;BME280;32131;53.454;-6.180;2023-03-15T04:14:24;101267.25;;;-0.29;94.20
46430;BME280;32131;53.454;-6.180;2023-03-15T04:16:52;101269.09;;;-0.27;94.54
46430;BME280;32131;53.454;-6.180;2023-03-15T04:19:21;101273.28;;;-0.27;94.22
46430;BME280;32131;53.454;-6.180;2023-03-15T04:21:49;101274.19;;;-0.27;94.24
46430;BME280;32131;53.454;-6.180;2023-03-15T04:24:18;101277.81;;;-0.23;94.27
46430;BME280;32131;53.454;-6.180;2023-03-15T04:26:46;101270.19;;;-0.23;94.24
46430;BME280;32131;53.454;-6.180;2023-03-15T04:29:14;101262.59;;;-0.23;94.02
46430;BME280;32131;53.454;-6.180;2023-03-15T04:31:48;101271.47;;;-0.17;94.14
46430;BME280;32131;53.454;-6.180;2023-03-15T04:34:16;101263.19;;;-0.14;94.15
46430;BME280;32131;53.454;-6.180;2023-03-15T04:36:45;101265.75;;;-0.14;94.05
46430;BME280;32131;53.454;-6.180;2023-03-15T04:39:13;101261.63;;;-0.12;94.09
46430;BME280;32131;53.454;-6.180;2023-03-15T04:41:42;101263.50;;;-0.09;93.90
46430;BME280;32131;53.454;-6.180;2023-03-15T04:44:10;101269.69;;;-0.06;93.87
46430;BME280;32131;53.454;-6.180;2023-03-15T04:46:42;101263.69;;;-0.06;93.88
46430;BME280;32131;53.454;-6.180;2023-03-15T04:49:14;101268.09;;;-0.04;94.00
46430;BME280;32131;53.454;-6.180;2023-03-15T04:51:59;101261.47;;;-0.02;93.77
46430;BME280;32131;53.454;-6.180;2023-03-15T04:54:32;101272.53;;;-0.01;93.64
46430;BME280;32131;53.454;-6.180;2023-03-15T04:57:05;101275.94;;;-0.01;93.83
46430;BME280;32131;53.454;-6.180;2023-03-15T04:59:35;101267.44;;;-0.01;93.90
46430;BME280;32131;53.454;-6.180;2023-03-15T05:02:06;101268.31;;;-0.01;93.99
46430;BME280;32131;53.454;-6.180;2023-03-15T05:04:41;101265.09;;;0.02;94.06
46430;BME280;32131;53.454;-6.180;2023-03-15T05:07:10;101271.75;;;0.00;94.13
46430;BME280;32131;53.454;-6.180;2023-03-15T05:09:40;101260.00;;;0.02;94.15
46430;BME280;32131;53.454;-6.180;2023-03-15T05:12:14;101274.69;;;0.06;94.01
46430;BME280;32131;53.454;-6.180;2023-03-15T05:14:43;101266.16;;;0.06;94.06
46430;BME280;32131;53.454;-6.180;2023-03-15T05:17:11;101256.78;;;0.05;94.08
46430;BME280;32131;53.454;-6.180;2023-03-15T05:19:43;101267.16;;;0.08;93.94
46430;BME280;32131;53.454;-6.180;2023-03-15T05:22:12;101260.44;;;0.08;93.96
46430;BME280;32131;53.454;-6.180;2023-03-15T05:24:42;101259.75;;;0.11;94.14
46430;BME280;32131;53.454;-6.180;2023-03-15T05:27:11;101264.53;;;0.06;94.12
46430;BME280;32131;53.454;-6.180;2023-03-15T05:29:42;101251.91;;;0.08;94.07
46430;BME280;32131;53.454;-6.180;2023-03-15T05:32:18;101258.97;;;0.12;94.18
46430;BME280;32131;53.454;-6.180;2023-03-15T05:34:55;101247.94;;;0.11;94.18
46430;BME280;32131;53.454;-6.180;2023-03-15T05:37:30;101253.91;;;0.12;94.18
46430;BME280;32131;53.454;-6.180;2023-03-15T05:39:58;101256.63;;;0.15;94.33
46430;BME280;32131;53.454;-6.180;2023-03-15T05:42:34;101262.69;;;0.17;94.41
46430;BME280;32131;53.454;-6.180;2023-03-15T05:45:05;101257.63;;;0.17;94.32
46430;BME280;32131;53.454;-6.180;2023-03-15T05:47:37;101258.78;;;0.22;94.42
46430;BME280;32131;53.454;-6.180;2023-03-15T05:50:08;101255.69;;;0.26;94.23
46430;BME280;32131;53.454;-6.180;2023-03-15T05:52:37;101244.75;;;0.27;94.02
46430;BME280;32131;53.454;-6.180;2023-03-15T05:55:05;101250.00;;;0.30;94.03
46430;BME280;32131;53.454;-6.180;2023-03-15T05:57:34;101248.66;;;0.36;94.08
46430;BME280;32131;53.454;-6.180;2023-03-15T06:00:06;101246.31;;;0.39;93.91
46430;BME280;32131;53.454;-6.180;2023-03-15T06:02:36;101247.09;;;0.38;93.88
46430;BME280;32131;53.454;-6.180;2023-03-15T06:05:09;101248.19;;;0.41;93.90
46430;BME280;32131;53.454;-6.180;2023-03-15T06:07:40;101234.59;;;0.41;93.77
46430;BME280;32131;53.454;-6.180;2023-03-15T06:10:10;101239.09;;;0.45;93.70
46430;BME280;32131;53.454;-6.180;2023-03-15T06:12:41;101239.28;;;0.48;93.79
46430;BME280;32131;53.454;-6.180;2023-03-15T06:15:11;101224.81;;;0.47;93.34
46430;BME280;32131;53.454;-6.180;2023-03-15T06:17:39;101213.00;;;0.47;93.29
46430;BME280;32131;53.454;-6.180;2023-03-15T06:20:14;101219.16;;;0.51;93.58
46430;BME280;32131;53.454;-6.180;2023-03-15T06:22:47;101212.41;;;0.52;93.67
46430;BME280;32131;53.454;-6.180;2023-03-15T06:25:25;101200.75;;;0.55;93.54
46430;BME280;32131;53.454;-6.180;2023-03-15T06:27:55;101194.19;;;0.59;93.28
46430;BME280;32131;53.454;-6.180;2023-03-15T06:30:24;101200.28;;;0.61;93.31
46430;BME280;32131;53.454;-6.180;2023-03-15T06:32:53;101192.94;;;0.66;93.18
46430;BME280;32131;53.454;-6.180;2023-03-15T06:35:24;101193.31;;;0.72;93.08
46430;BME280;32131;53.454;-6.180;2023-03-15T06:37:55;101190.19;;;0.76;92.81
46430;BME280;32131;53.454;-6.180;2023-03-15T06:40:25;101179.03;;;0.74;92.84
46430;BME280;32131;53.454;-6.180;2023-03-15T06:43:06;101180.31;;;0.81;92.95
46430;BME280;32131;53.454;-6.180;2023-03-15T06:45:36;101184.13;;;0.87;92.84
46430;BME280;32131;53.454;-6.180;2023-03-15T06:48:09;101179.91;;;0.88;92.91
46430;BME280;32131;53.454;-6.180;2023-03-15T06:50:45;101180.97;;;0.91;92.71
46430;BME280;32131;53.454;-6.180;2023-03-15T06:53:15;101178.81;;;0.98;92.71
46430;BME280;32131;53.454;-6.180;2023-03-15T06:56:06;101176.44;;;1.01;92.79
46430;BME280;32131;53.454;-6.180;2023-03-15T06:59:04;101178.09;;;1.14;92.70
46430;BME280;32131;53.454;-6.180;2023-03-15T07:01:33;101184.44;;;1.20;92.16
46430;BME280;32131;53.454;-6.180;2023-03-15T07:04:02;101173.63;;;1.24;92.24
46430;BME280;32131;53.454;-6.180;2023-03-15T07:06:35;101167.25;;;1.31;92.50
46430;BME280;32131;53.454;-6.180;2023-03-15T07:09:04;101168.69;;;1.41;92.50
46430;BME280;32131;53.454;-6.180;2023-03-15T07:11:33;101159.94;;;1.51;92.57
46430;BME280;32131;53.454;-6.180;2023-03-15T07:14:04;101166.44;;;1.61;92.30
46430;BME280;32131;53.454;-6.180;2023-03-15T07:20:11;101145.72;;;1.84;92.25
46430;BME280;32131;53.454;-6.180;2023-03-15T07:22:47;101149.00;;;1.97;91.84
46430;BME280;32131;53.454;-6.180;2023-03-15T07:25:20;101141.69;;;2.03;91.82
46430;BME280;32131;53.454;-6.180;2023-03-15T07:28:10;101126.03;;;2.12;91.56
46430;BME280;32131;53.454;-6.180;2023-03-15T07:30:38;101136.75;;;2.21;91.29
46430;BME280;32131;53.454;-6.180;2023-03-15T07:33:10;101138.13;;;2.31;91.05
46430;BME280;32131;53.454;-6.180;2023-03-15T07:35:38;101138.47;;;2.37;90.66
46430;BME280;32131;53.454;-6.180;2023-03-15T07:38:08;101135.47;;;2.44;90.87
46430;BME280;32131;53.454;-6.180;2023-03-15T07:40:37;101135.97;;;2.54;90.37
46430;BME280;32131;53.454;-6.180;2023-03-15T07:43:06;101135.44;;;2.59;89.99
46430;BME280;32131;53.454;-6.180;2023-03-15T07:45:36;101135.75;;;2.65;89.83
46430;BME280;32131;53.454;-6.180;2023-03-15T07:48:05;101127.63;;;2.73;89.60
46430;BME280;32131;53.454;-6.180;2023-03-15T07:50:34;101135.59;;;2.79;89.23
46430;BME280;32131;53.454;-6.180;2023-03-15T07:53:09;101133.63;;;2.90;88.79
46430;BME280;32131;53.454;-6.180;2023-03-15T07:55:41;101136.66;;;2.99;88.34
46430;BME280;32131;53.454;-6.180;2023-03-15T07:58:11;101136.03;;;3.03;88.21
46430;BME280;32131;53.454;-6.180;2023-03-15T08:00:51;101137.25;;;3.10;87.97
46430;BME280;32131;53.454;-6.180;2023-03-15T08:03:41;101138.59;;;3.20;87.91
46430;BME280;32131;53.454;-6.180;2023-03-15T08:06:09;101137.06;;;3.23;87.98
46430;BME280;32131;53.454;-6.180;2023-03-15T08:08:38;101140.03;;;3.31;88.10
46430;BME280;32131;53.454;-6.180;2023-03-15T08:11:08;101129.00;;;3.32;88.13
46430;BME280;32131;53.454;-6.180;2023-03-15T08:13:36;101121.50;;;3.35;87.85
46430;BME280;32131;53.454;-6.180;2023-03-15T08:21:55;101132.81;;;3.40;88.43
46430;BME280;32131;53.454;-6.180;2023-03-15T08:24:43;101128.84;;;3.45;88.63
46430;BME280;32131;53.454;-6.180;2023-03-15T08:27:14;101118.75;;;3.49;88.56
46430;BME280;32131;53.454;-6.180;2023-03-15T08:29:54;101125.78;;;3.53;88.91
46430;BME280;32131;53.454;-6.180;2023-03-15T08:32:40;101122.44;;;3.54;88.86
46430;BME280;32131;53.454;-6.180;2023-03-15T08:36:20;101125.13;;;3.57;89.17
46430;BME280;32131;53.454;-6.180;2023-03-15T08:40:18;101118.88;;;3.68;89.10
46430;BME280;32131;53.454;-6.180;2023-03-15T08:42:36;101121.97;;;3.79;89.02
46430;BME280;32131;53.454;-6.180;2023-03-15T08:45:06;101109.28;;;3.81;89.05
46430;BME280;32131;53.454;-6.180;2023-03-15T08:47:37;101113.72;;;3.85;89.51
46430;BME280;32131;53.454;-6.180;2023-03-15T08:50:09;101098.63;;;3.89;89.90
46430;BME280;32131;53.454;-6.180;2023-03-15T08:52:38;101099.00;;;3.97;90.08
46430;BME280;32131;53.454;-6.180;2023-03-15T08:55:40;101101.91;;;4.05;90.14
46430;BME280;32131;53.454;-6.180;2023-03-15T08:58:12;101101.19;;;4.07;90.21
46430;BME280;32131;53.454;-6.180;2023-03-15T09:00:43;101099.59;;;4.09;90.58
46430;BME280;32131;53.454;-6.180;2023-03-15T09:03:16;101100.75;;;4.16;90.96
46430;BME280;32131;53.454;-6.180;2023-03-15T09:05:45;101099.16;;;4.18;91.40
46430;BME280;32131;53.454;-6.180;2023-03-15T09:08:15;101106.16;;;4.22;91.86
46430;BME280;32131;53.454;-6.180;2023-03-15T09:10:47;101108.78;;;4.24;92.55
46430;BME280;32131;53.454;-6.180;2023-03-15T09:13:17;101113.25;;;4.28;92.81
46430;BME280;32131;53.454;-6.180;2023-03-15T09:15:49;101104.84;;;4.31;93.41
46430;BME280;32131;53.454;-6.180;2023-03-15T09:18:23;101099.94;;;4.35;93.84
46430;BME280;32131;53.454;-6.180;2023-03-15T09:20:54;101100.16;;;4.40;94.14
46430;BME280;32131;53.454;-6.180;2023-03-15T09:23:24;101100.31;;;4.43;94.34
46430;BME280;32131;53.454;-6.180;2023-03-15T09:25:55;101087.63;;;4.46;94.49
46430;BME280;32131;53.454;-6.180;2023-03-15T09:28:25;101090.19;;;4.46;95.04
46430;BME280;32131;53.454;-6.180;2023-03-15T09:30:53;101090.28;;;4.48;95.32
46430;BME280;32131;53.454;-6.180;2023-03-15T09:33:25;101090.41;;;4.51;95.55
46430;BME280;32131;53.454;-6.180;2023-03-15T09:36:16;101086.19;;;4.51;95.61
46430;BME280;32131;53.454;-6.180;2023-03-15T09:39:01;101082.69;;;4.49;95.87
46430;BME280;32131;53.454;-6.180;2023-03-15T09:41:40;101084.28;;;4.47;96.43
46430;BME280;32131;53.454;-6.180;2023-03-15T09:44:26;101075.16;;;4.52;96.34
46430;BME280;32131;53.454;-6.180;2023-03-15T09:47:10;101067.53;;;4.54;96.42
46430;BME280;32131;53.454;-6.180;2023-03-15T09:49:45;101066.06;;;4.59;96.73
46430;BME280;32131;53.454;-6.180;2023-03-15T09:52:25;101067.06;;;4.63;96.92
46430;BME280;32131;53.454;-6.180;2023-03-15T09:54:59;101062.91;;;4.65;96.80
46430;BME280;32131;53.454;-6.180;2023-03-15T09:57:34;101057.84;;;4.66;96.98
46430;BME280;32131;53.454;-6.180;2023-03-15T10:00:13;101052.72;;;4.66;97.29
46430;BME280;32131;53.454;-6.180;2023-03-15T10:02:50;101044.25;;;4.67;98.00
46430;BME280;32131;53.454;-6.180;2023-03-15T10:05:31;101045.25;;;4.71;97.98
46430;BME280;32131;53.454;-6.180;2023-03-15T10:08:02;101042.78;;;4.72;98.35
46430;BME280;32131;53.454;-6.180;2023-03-15T10:10:33;101025.94;;;4.78;98.46
46430;BME280;32131;53.454;-6.180;2023-03-15T10:13:15;101030.31;;;4.80;98.79
46430;BME280;32131;53.454;-6.180;2023-03-15T10:16:01;101026.31;;;4.85;99.13
46430;BME280;32131;53.454;-6.180;2023-03-15T10:18:41;101021.38;;;4.90;99.38
46430;BME280;32131;53.454;-6.180;2023-03-15T10:21:19;101023.25;;;4.94;99.77
46430;BME280;32131;53.454;-6.180;2023-03-15T10:23:53;101010.31;;;4.91;100.00
46430;BME280;32131;53.454;-6.180;2023-03-15T10:26:24;100999.25;;;4.92;100.00
46430;BME280;32131;53.454;-6.180;2023-03-15T10:28:58;100996.84;;;4.95;100.00
46430;BME280;32131;53.454;-6.180;2023-03-15T10:31:33;100990.72;;;4.92;100.00
46430;BME280;32131;53.454;-6.180;2023-03-15T10:34:11;100982.06;;;4.88;100.00
46430;BME280;32131;53.454;-6.180;2023-03-15T10:36:47;100971.81;;;4.88;100.00
46430;BME280;32131;53.454;-6.180;2023-03-15T10:39:21;100973.06;;;4.98;100.00
46430;BME280;32131;53.454;-6.180;2023-03-15T10:41:52;100969.09;;;5.04;100.00
46430;BME280;32131;53.454;-6.180;2023-03-15T10:44:25;100970.22;;;5.11;100.00
46430;BME280;32131;53.454;-6.180;2023-03-15T10:47:04;100973.59;;;5.10;100.00
46430;BME280;32131;53.454;-6.180;2023-03-15T10:49:49;100966.09;;;5.15;100.00
46430;BME280;32131;53.454;-6.180;2023-03-15T10:52:32;100964.59;;;5.20;100.00
46430;BME280;32131;53.454;-6.180;2023-03-15T10:55:04;100952.13;;;5.28;100.00
46430;BME280;32131;53.454;-6.180;2023-03-15T10:57:39;100948.63;;;5.26;100.00
46430;BME280;32131;53.454;-6.180;2023-03-15T11:00:29;100949.47;;;5.26;100.00
46430;BME280;32131;53.454;-6.180;2023-03-15T11:03:03;100937.75;;;5.31;100.00
46430;BME280;32131;53.454;-6.180;2023-03-15T11:05:39;100939.59;;;5.35;100.00
46430;BME280;32131;53.454;-6.180;2023-03-15T11:08:18;100937.22;;;5.40;100.00
46430;BME280;32131;53.454;-6.180;2023-03-15T11:10:55;100925.38;;;5.42;100.00
46430;BME280;32131;53.454;-6.180;2023-03-15T11:13:25;100922.28;;;5.51;100.00
46430;BME280;32131;53.454;-6.180;2023-03-15T11:16:19;100912.84;;;5.50;100.00
46430;BME280;32131;53.454;-6.180;2023-03-15T11:18:59;100907.16;;;5.57;100.00
46430;BME280;32131;53.454;-6.180;2023-03-15T11:21:40;100905.78;;;5.65;100.00
46430;BME280;32131;53.454;-6.180;2023-03-15T11:24:23;100899.25;;;5.74;100.00
46430;BME280;32131;53.454;-6.180;2023-03-15T11:27:11;100904.72;;;5.83;100.00
46430;BME280;32131;53.454;-6.180;2023-03-15T11:29:49;100885.38;;;5.91;100.00
46430;BME280;32131;53.454;-6.180;2023-03-15T11:32:28;100881.53;;;6.03;100.00
46430;BME280;32131;53.454;-6.180;2023-03-15T11:35:13;100880.13;;;6.11;100.00
46430;BME280;32131;53.454;-6.180;2023-03-15T11:38:03;100866.00;;;6.22;100.00
46430;BME280;32131;53.454;-6.180;2023-03-15T11:40:59;100855.81;;;6.25;100.00
46430;BME280;32131;53.454;-6.180;2023-03-15T11:43:48;100849.31;;;6.34;100.00
46430;BME280;32131;53.454;-6.180;2023-03-15T11:47:02;100848.69;;;6.41;100.00
46430;BME280;32131;53.454;-6.180;2023-03-15T11:52:56;100825.03;;;6.50;100.00
46430;BME280;32131;53.454;-6.180;2023-03-15T11:56:18;100822.66;;;6.56;100.00
46430;BME280;32131;53.454;-6.180;2023-03-15T11:58:34;100817.63;;;6.59;100.00
46430;BME280;32131;53.454;-6.180;2023-03-15T12:01:09;100811.72;;;6.61;100.00
46430;BME280;32131;53.454;-6.180;2023-03-15T12:10:46;100808.13;;;6.82;100.00
46430;BME280;32131;53.454;-6.180;2023-03-15T12:13:24;100800.44;;;6.82;100.00
46430;BME280;32131;53.454;-6.180;2023-03-15T12:16:22;100806.47;;;6.84;100.00
46430;BME280;32131;53.454;-6.180;2023-03-15T12:19:26;100790.38;;;6.90;100.00
46430;BME280;32131;53.454;-6.180;2023-03-15T12:22:39;100775.91;;;6.92;100.00
46430;BME280;32131;53.454;-6.180;2023-03-15T12:25:30;100773.59;;;7.00;100.00
46430;BME280;32131;53.454;-6.180;2023-03-15T12:28:25;100767.63;;;7.01;100.00
46430;BME280;32131;53.454;-6.180;2023-03-15T12:30:58;100763.19;;;6.95;100.00
46430;BME280;32131;53.454;-6.180;2023-03-15T12:33:46;100746.22;;;7.00;100.00
46430;BME280;32131;53.454;-6.180;2023-03-15T12:36:31;100732.72;;;7.07;100.00
46430;BME280;32131;53.454;-6.180;2023-03-15T12:39:19;100733.50;;;7.05;100.00
46430;BME280;32131;53.454;-6.180;2023-03-15T12:41:52;100732.59;;;7.03;100.00
46430;BME280;32131;53.454;-6.180;2023-03-15T12:44:38;100712.19;;;7.07;100.00
46430;BME280;32131;53.454;-6.180;2023-03-15T12:47:10;100698.53;;;7.08;100.00
46430;BME280;32131;53.454;-6.180;2023-03-15T12:49:40;100696.88;;;7.11;100.00
46430;BME280;32131;53.454;-6.180;2023-03-15T12:52:27;100707.03;;;7.07;100.00
46430;BME280;32131;53.454;-6.180;2023-03-15T12:55:06;100698.31;;;7.01;100.00
46430;BME280;32131;53.454;-6.180;2023-03-15T12:57:51;100686.31;;;7.00;100.00
46430;BME280;32131;53.454;-6.180;2023-03-15T13:00:25;100674.47;;;7.05;100.00
46430;BME280;32131;53.454;-6.180;2023-03-15T13:03:02;100682.16;;;7.05;100.00
46430;BME280;32131;53.454;-6.180;2023-03-15T13:05:35;100686.47;;;7.06;100.00
46430;BME280;32131;53.454;-6.180;2023-03-15T13:08:30;100666.84;;;7.08;100.00
46430;BME280;32131;53.454;-6.180;2023-03-15T13:11:16;100664.41;;;7.13;100.00
46430;BME280;32131;53.454;-6.180;2023-03-15T13:14:03;100663.63;;;7.15;100.00
46430;BME280;32131;53.454;-6.180;2023-03-15T13:16:42;100649.06;;;7.16;100.00
46430;BME280;32131;53.454;-6.180;2023-03-15T13:19:18;100649.19;;;7.19;100.00
46430;BME280;32131;53.454;-6.180;2023-03-15T13:21:58;100641.84;;;7.33;100.00
46430;BME280;32131;53.454;-6.180;2023-03-15T13:24:38;100641.19;;;7.40;100.00
46430;BME280;32131;53.454;-6.180;2023-03-15T13:27:12;100633.47;;;7.40;100.00
46430;BME280;32131;53.454;-6.180;2023-03-15T13:29:45;100624.75;;;7.35;100.00
46430;BME280;32131;53.454;-6.180;2023-03-15T13:32:17;100624.69;;;7.32;100.00
46430;BME280;32131;53.454;-6.180;2023-03-15T13:34:48;100624.84;;;7.38;100.00
46430;BME280;32131;53.454;-6.180;2023-03-15T13:37:20;100616.56;;;7.48;100.00
46430;BME280;32131;53.454;-6.180;2023-03-15T13:39:53;100604.69;;;7.53;100.00
46430;BME280;32131;53.454;-6.180;2023-03-15T13:42:23;100597.19;;;7.61;100.00
46430;BME280;32131;53.454;-6.180;2023-03-15T13:45:09;100602.28;;;7.60;100.00
46430;BME280;32131;53.454;-6.180;2023-03-15T13:47:42;100596.31;;;7.61;100.00